createdAt,value
2022-11-30T00:01:11.468Z,40.08
2022-11-30T00:03:39.159Z,43.22
2022-11-30T00:06:07.221Z,45.22
2022-11-30T00:11:02.104Z,42.72
2022-11-30T00:13:29.561Z,39.33
2022-11-30T00:16:02.444Z,41.92
2022-11-30T00:18:29.926Z,42.40
2022-11-30T00:21:00.582Z,43.00
2022-11-30T00:23:28.199Z,41.40
2022-11-30T00:25:55.675Z,41.47
2022-11-30T00:28:23.144Z,42.30
2022-11-30T00:30:58.563Z,40.97
2022-11-30T00:33:27.544Z,42.30
2022-11-30T00:35:59.293Z,43.55
2022-11-30T00:38:27.334Z,43.35
2022-11-30T00:43:22.133Z,40.30
2022-11-30T00:45:49.663Z,43.08
2022-11-30T00:48:17.161Z,40.53
2022-11-30T00:50:45.959Z,41.70
2022-11-30T00:53:13.436Z,42.17
2022-11-30T00:55:40.963Z,44.15
2022-11-30T00:58:08.839Z,45.38
2022-11-30T01:00:36.665Z,42.30
2022-11-30T01:03:04.738Z,40.22
2022-11-30T01:08:03.073Z,40.00
2022-11-30T01:10:30.587Z,41.17
2022-11-30T01:12:58.292Z,41.83
2022-11-30T01:15:25.778Z,44.25
2022-11-30T01:17:53.276Z,40.13
2022-11-30T01:20:21.081Z,43.25
2022-11-30T01:22:48.667Z,38.08
2022-11-30T01:25:17.580Z,43.22
2022-11-30T01:27:45.095Z,38.22
2022-11-30T01:30:13.227Z,42.17
2022-11-30T01:32:40.703Z,41.97
2022-11-30T01:35:08.947Z,40.42
2022-11-30T01:37:36.451Z,39.35
2022-11-30T01:40:04.466Z,39.83
2022-11-30T01:45:02.287Z,39.75
2022-11-30T01:47:34.092Z,40.92
2022-11-30T01:50:05.648Z,43.70
2022-11-30T01:52:38.258Z,41.80
2022-11-30T01:55:14.711Z,38.42
2022-11-30T01:57:49.158Z,38.35
2022-11-30T02:00:17.772Z,40.05
2022-11-30T02:02:54.090Z,40.95
2022-11-30T02:05:23.979Z,41.03
2022-11-30T02:07:51.637Z,42.35
2022-11-30T02:10:23.584Z,40.53
2022-11-30T02:13:09.608Z,36.78
2022-11-30T02:15:47.463Z,42.17
2022-11-30T02:21:09.555Z,41.08
2022-11-30T02:24:04.371Z,40.63
2022-11-30T02:26:56.742Z,41.08
2022-11-30T02:29:29.591Z,39.33
2022-11-30T02:32:05.745Z,40.90
2022-11-30T02:34:37.069Z,39.42
2022-11-30T02:37:07.602Z,40.38
2022-11-30T02:39:35.296Z,42.10
2022-11-30T02:42:02.856Z,44.08
2022-11-30T02:44:31.705Z,39.90
2022-11-30T02:47:10.770Z,45.22
2022-11-30T02:49:45.423Z,39.97
2022-11-30T02:52:15.515Z,45.65
2022-11-30T02:54:43.191Z,45.90
2022-11-30T02:57:10.695Z,39.85
2022-11-30T02:59:40.405Z,40.72
2022-11-30T03:02:07.953Z,42.63
2022-11-30T03:04:35.466Z,46.40
2022-11-30T03:07:03.025Z,43.75
2022-11-30T03:09:30.502Z,44.85
2022-11-30T03:11:57.995Z,42.67
2022-11-30T03:14:25.444Z,41.30
2022-11-30T03:16:54.307Z,46.75
2022-11-30T03:19:21.819Z,40.88
2022-11-30T03:21:49.298Z,44.70
2022-11-30T03:24:16.863Z,44.15
2022-11-30T03:26:44.358Z,43.33
2022-11-30T03:29:11.837Z,43.35
2022-11-30T03:31:39.390Z,41.75
2022-11-30T03:34:08.226Z,37.90
2022-11-30T03:36:35.741Z,44.08
2022-11-30T03:39:03.734Z,39.95
2022-11-30T03:41:31.225Z,44.47
2022-11-30T03:43:58.715Z,41.30
2022-11-30T03:46:27.392Z,45.90
2022-11-30T03:48:55.384Z,42.50
2022-11-30T03:51:24.163Z,45.25
2022-11-30T03:53:51.661Z,43.03
2022-11-30T03:56:19.192Z,43.83
2022-11-30T03:58:46.732Z,42.95
2022-11-30T04:01:16.063Z,42.35
2022-11-30T04:03:44.174Z,44.08
2022-11-30T04:08:42.446Z,39.28
2022-11-30T04:11:10.459Z,44.40
2022-11-30T04:16:07.244Z,42.47
2022-11-30T04:18:36.401Z,42.97
2022-11-30T04:21:04.626Z,47.63
2022-11-30T04:23:34.077Z,43.95
2022-11-30T04:26:03.446Z,44.15
2022-11-30T04:28:30.931Z,42.72
2022-11-30T04:31:00.321Z,47.00
2022-11-30T04:33:28.531Z,42.42
2022-11-30T04:35:58.546Z,44.50
2022-11-30T04:38:26.479Z,43.70
2022-11-30T04:40:54.391Z,46.33
2022-11-30T04:43:23.843Z,45.80
2022-11-30T04:45:51.410Z,45.75
2022-11-30T04:48:20.055Z,45.50
2022-11-30T04:50:47.551Z,43.63
2022-11-30T04:53:15.027Z,43.88
2022-11-30T04:55:42.479Z,46.03
2022-11-30T04:58:10.087Z,47.88
2022-11-30T05:00:39.036Z,48.78
2022-11-30T05:03:06.517Z,45.08
2022-11-30T05:05:33.982Z,43.95
2022-11-30T05:08:02.299Z,45.60
2022-11-30T05:10:30.294Z,43.92
2022-11-30T05:12:57.990Z,44.67
2022-11-30T05:15:25.821Z,42.97
2022-11-30T05:17:54.619Z,45.03
2022-11-30T05:20:22.094Z,45.22
2022-11-30T05:22:50.050Z,45.50
2022-11-30T05:27:45.231Z,43.95
2022-11-30T05:30:13.704Z,43.97
2022-11-30T05:32:41.170Z,41.00
2022-11-30T05:35:10.769Z,41.17
2022-11-30T05:37:38.331Z,42.55
2022-11-30T05:40:07.341Z,39.28
2022-11-30T05:42:34.836Z,41.67
2022-11-30T05:45:02.316Z,41.05
2022-11-30T05:47:29.803Z,45.88
2022-11-30T05:49:57.292Z,40.17
2022-11-30T05:52:26.108Z,39.72
2022-11-30T05:54:53.583Z,43.35
2022-11-30T05:57:21.060Z,43.47
2022-11-30T05:59:48.543Z,40.42
2022-11-30T06:02:16.174Z,41.90
2022-11-30T06:04:43.719Z,43.95
2022-11-30T06:07:11.891Z,45.00
2022-11-30T06:09:40.887Z,38.45
2022-11-30T06:12:08.975Z,45.75
2022-11-30T06:17:04.043Z,41.08
2022-11-30T06:19:31.662Z,39.35
2022-11-30T06:21:59.144Z,42.17
2022-11-30T06:24:26.629Z,38.78
2022-11-30T06:26:55.490Z,38.85
2022-11-30T06:29:23.020Z,41.38
2022-11-30T06:31:50.604Z,49.45
2022-11-30T06:34:18.104Z,40.45
2022-11-30T06:36:45.632Z,39.65
2022-11-30T06:39:13.525Z,42.20
2022-11-30T06:41:41.092Z,43.38
2022-11-30T06:44:10.755Z,39.83
2022-11-30T06:46:38.532Z,42.15
2022-11-30T06:49:06.206Z,43.47
2022-11-30T06:51:34.311Z,44.47
2022-11-30T06:56:29.168Z,41.33
2022-11-30T06:58:56.640Z,42.20
2022-11-30T07:01:25.562Z,39.38
2022-11-30T07:03:53.304Z,42.28
2022-11-30T07:06:20.988Z,44.05
2022-11-30T07:08:49.799Z,43.95
2022-11-30T07:11:17.371Z,40.63
2022-11-30T07:13:45.680Z,38.25
2022-11-30T07:16:15.608Z,39.25
2022-11-30T07:18:44.438Z,41.17
2022-11-30T07:21:12.075Z,43.35
2022-11-30T07:23:57.396Z,42.40
2022-11-30T07:26:25.841Z,44.25
2022-11-30T07:28:58.030Z,40.13
2022-11-30T07:31:27.715Z,42.35
2022-11-30T07:33:57.354Z,46.60
2022-11-30T07:36:29.612Z,43.55
2022-11-30T07:38:57.169Z,39.42
2022-11-30T07:41:24.748Z,43.28
2022-11-30T07:43:52.240Z,38.88
2022-11-30T07:46:19.920Z,42.13
2022-11-30T07:48:47.491Z,42.13
2022-11-30T07:51:18.043Z,41.00
2022-11-30T07:53:45.845Z,38.03
2022-11-30T07:56:16.436Z,37.70
2022-11-30T07:58:44.719Z,42.47
2022-11-30T08:01:13.874Z,40.22
2022-11-30T08:03:42.015Z,39.83
2022-11-30T08:08:42.393Z,42.30
2022-11-30T08:11:13.339Z,40.30
2022-11-30T08:13:40.828Z,46.05
2022-11-30T08:16:10.196Z,43.30
2022-11-30T08:18:37.803Z,42.97
2022-11-30T08:21:08.497Z,41.95
2022-11-30T08:23:39.062Z,42.42
2022-11-30T08:26:11.088Z,40.00
2022-11-30T08:28:38.659Z,41.50
2022-11-30T08:31:08.060Z,44.13
2022-11-30T08:33:37.135Z,42.25
2022-11-30T08:36:09.058Z,42.30
2022-11-30T08:38:37.367Z,40.40
2022-11-30T08:41:05.111Z,45.08
2022-11-30T08:43:34.499Z,41.85
2022-11-30T08:46:11.412Z,41.05
2022-11-30T08:48:49.231Z,40.88
2022-11-30T08:51:19.043Z,43.08
2022-11-30T08:53:47.075Z,41.45
2022-11-30T08:58:44.150Z,42.72
2022-11-30T09:01:13.920Z,43.08
2022-11-30T09:03:42.523Z,43.30
2022-11-30T09:06:12.803Z,42.35
2022-11-30T09:08:41.448Z,39.28
2022-11-30T09:11:10.735Z,43.10
2022-11-30T09:13:38.295Z,41.53
2022-11-30T09:16:08.233Z,46.20
2022-11-30T09:18:36.129Z,41.65
2022-11-30T09:21:05.458Z,44.95
2022-11-30T09:23:33.093Z,46.63
2022-11-30T09:26:04.448Z,41.83
2022-11-30T09:28:32.166Z,42.38
2022-11-30T09:31:02.848Z,35.33
2022-11-30T09:33:32.102Z,39.78
2022-11-30T09:36:00.815Z,113.82
2022-11-30T09:38:28.710Z,56.45
2022-11-30T09:40:58.746Z,51.65
2022-11-30T09:43:37.506Z,56.80
2022-11-30T09:46:08.657Z,63.13
2022-11-30T09:48:52.333Z,77.75
2022-11-30T09:51:23.518Z,50.28
2022-11-30T09:53:56.323Z,58.45
2022-11-30T09:56:29.461Z,63.47
2022-11-30T09:59:03.132Z,64.22
2022-11-30T10:01:32.990Z,62.80
2022-11-30T10:04:02.523Z,76.10
2022-11-30T10:06:39.833Z,73.88
2022-11-30T10:09:25.579Z,70.03
2022-11-30T10:12:00.242Z,55.67
2022-11-30T10:14:58.635Z,58.20
2022-11-30T10:17:39.065Z,58.10
2022-11-30T10:20:23.781Z,107.57
2022-11-30T10:23:07.999Z,67.10
2022-11-30T10:25:48.193Z,64.40
2022-11-30T10:28:45.565Z,61.33
2022-11-30T10:31:10.984Z,59.38
2022-11-30T10:33:44.182Z,61.60
2022-11-30T10:36:16.348Z,66.20
2022-11-30T10:38:47.701Z,66.05
2022-11-30T10:41:19.343Z,53.80
2022-11-30T10:43:52.918Z,64.13
2022-11-30T10:46:23.505Z,47.28
2022-11-30T10:48:55.653Z,49.13
2022-11-30T10:51:26.024Z,52.45
2022-11-30T10:53:53.633Z,47.45
2022-11-30T10:56:21.123Z,62.22
2022-11-30T10:58:56.251Z,65.95
2022-11-30T11:01:33.824Z,48.63
2022-11-30T11:04:17.215Z,50.50
2022-11-30T11:06:48.647Z,47.50
2022-11-30T11:09:35.138Z,73.40
2022-11-30T11:12:04.431Z,47.45
2022-11-30T11:14:36.459Z,70.28
2022-11-30T11:17:06.773Z,59.33
2022-11-30T11:19:38.178Z,47.78
2022-11-30T11:22:15.808Z,53.08
2022-11-30T11:24:43.750Z,56.33
2022-11-30T11:27:23.887Z,50.15
2022-11-30T11:30:01.924Z,54.63
2022-11-30T11:32:30.996Z,54.47
2022-11-30T11:34:59.344Z,77.05
2022-11-30T11:37:31.002Z,111.13
2022-11-30T11:40:01.669Z,68.72
2022-11-30T11:42:31.803Z,53.95
2022-11-30T11:45:01.632Z,42.53
2022-11-30T11:47:38.672Z,48.92
2022-11-30T11:50:50.300Z,62.40
2022-11-30T11:53:25.865Z,62.90
2022-11-30T11:55:57.415Z,80.95
2022-11-30T11:58:33.888Z,63.15
2022-11-30T12:01:31.518Z,62.42
2022-11-30T12:04:05.894Z,57.85
2022-11-30T12:06:35.198Z,58.65
2022-11-30T12:09:11.627Z,74.47
2022-11-30T12:11:43.474Z,69.75
2022-11-30T12:14:13.665Z,66.78
2022-11-30T12:17:02.159Z,69.68
2022-11-30T12:19:38.392Z,79.53
2022-11-30T12:22:17.299Z,77.00
2022-11-30T12:25:05.493Z,76.75
2022-11-30T12:27:42.455Z,62.65
2022-11-30T12:30:16.721Z,60.63
2022-11-30T12:33:09.430Z,69.03
2022-11-30T12:35:47.759Z,46.03
2022-11-30T12:38:27.025Z,43.67
2022-11-30T12:41:02.856Z,53.65
2022-11-30T12:43:44.000Z,43.85
2022-11-30T12:46:22.384Z,49.25
2022-11-30T12:49:00.992Z,48.15
2022-11-30T12:51:34.299Z,48.28
2022-11-30T12:54:08.775Z,53.10
2022-11-30T12:56:46.162Z,53.17
2022-11-30T12:59:31.611Z,59.78
2022-11-30T13:02:17.848Z,66.38
2022-11-30T13:04:56.359Z,75.88
2022-11-30T13:07:31.133Z,77.93
2022-11-30T13:10:01.547Z,66.95
2022-11-30T13:12:36.708Z,52.42
2022-11-30T13:15:09.823Z,56.63
2022-11-30T13:17:41.797Z,53.03
2022-11-30T13:20:21.239Z,52.63
2022-11-30T13:22:54.689Z,55.17
2022-11-30T13:26:06.147Z,61.78
2022-11-30T13:28:32.402Z,61.10
2022-11-30T13:31:06.833Z,60.20
2022-11-30T13:33:49.149Z,55.70
2022-11-30T13:36:28.070Z,62.92
2022-11-30T13:39:20.734Z,60.60
2022-11-30T13:41:50.379Z,57.90
2022-11-30T13:44:30.299Z,56.38
2022-11-30T13:46:58.287Z,51.97
2022-11-30T13:52:21.384Z,49.42
2022-11-30T13:57:19.932Z,52.53
2022-11-30T13:59:51.588Z,47.03
2022-11-30T14:02:59.185Z,51.47
2022-11-30T14:08:32.323Z,46.42
2022-11-30T14:11:38.376Z,50.33
2022-11-30T14:14:47.387Z,54.17
2022-11-30T14:17:20.206Z,47.95
2022-11-30T14:19:53.040Z,49.60
2022-11-30T14:22:20.743Z,52.83
2022-11-30T14:24:49.940Z,43.22
2022-11-30T14:27:21.064Z,50.58
2022-11-30T14:29:53.281Z,48.80
2022-11-30T14:32:30.129Z,45.42
2022-11-30T14:35:08.040Z,48.30
2022-11-30T14:40:11.941Z,59.25
2022-11-30T14:42:48.292Z,63.10
2022-11-30T14:45:21.160Z,62.63
2022-11-30T14:47:52.539Z,57.40
2022-11-30T14:50:24.245Z,52.05
2022-11-30T14:53:01.663Z,44.10
2022-11-30T14:55:34.367Z,54.53
2022-11-30T14:58:14.264Z,49.40
2022-11-30T15:00:44.712Z,56.40
2022-11-30T15:03:23.901Z,47.35
2022-11-30T15:05:53.044Z,52.35
2022-11-30T15:08:20.935Z,54.75
2022-11-30T15:10:48.874Z,46.22
2022-11-30T15:13:19.609Z,55.38
2022-11-30T15:15:52.421Z,55.33
2022-11-30T15:18:23.015Z,53.97
2022-11-30T15:20:55.364Z,67.47
2022-11-30T15:23:23.439Z,49.00
2022-11-30T15:28:24.044Z,51.50
2022-11-30T15:30:55.723Z,49.50
2022-11-30T15:33:29.955Z,49.28
2022-11-30T15:36:18.820Z,46.95
2022-11-30T15:38:51.004Z,49.53
2022-11-30T15:41:21.287Z,46.20
2022-11-30T15:43:51.444Z,44.90
2022-11-30T15:46:30.550Z,45.92
2022-11-30T15:49:18.847Z,60.33
2022-11-30T15:51:53.194Z,43.83
2022-11-30T15:54:44.939Z,43.33
2022-11-30T15:57:12.796Z,45.70
2022-11-30T15:59:41.343Z,45.13
2022-11-30T16:02:26.159Z,46.33
2022-11-30T16:05:23.940Z,47.63
2022-11-30T16:10:23.375Z,55.60
2022-11-30T16:12:53.526Z,47.63
2022-11-30T16:15:23.337Z,49.10
2022-11-30T16:17:52.076Z,46.95
2022-11-30T16:20:21.620Z,47.30
2022-11-30T16:22:50.125Z,53.00
2022-11-30T16:25:19.278Z,43.83
2022-11-30T16:27:47.603Z,53.42
2022-11-30T16:30:17.389Z,51.10
2022-11-30T16:32:45.336Z,45.38
2022-11-30T16:35:21.623Z,48.40
2022-11-30T16:37:50.915Z,58.05
2022-11-30T16:40:19.828Z,58.83
2022-11-30T16:42:49.703Z,56.90
2022-11-30T16:45:20.619Z,51.70
2022-11-30T16:47:48.130Z,49.25
2022-11-30T16:50:16.136Z,52.40
2022-11-30T16:55:15.297Z,51.22
2022-11-30T16:57:43.239Z,49.10
2022-11-30T17:00:13.155Z,53.45
2022-11-30T17:02:45.849Z,44.92
2022-11-30T17:05:16.071Z,50.17
2022-11-30T17:07:43.941Z,47.85
2022-11-30T17:10:12.805Z,45.92
2022-11-30T17:12:42.796Z,46.45
2022-11-30T17:15:15.349Z,47.85
2022-11-30T17:17:42.825Z,50.80
2022-11-30T17:20:11.096Z,48.13
2022-11-30T17:22:39.725Z,54.97
2022-11-30T17:25:12.353Z,48.50
2022-11-30T17:27:41.181Z,61.65
2022-11-30T17:30:09.897Z,57.80
2022-11-30T17:32:37.441Z,55.65
2022-11-30T17:35:05.260Z,57.88
2022-11-30T17:37:32.766Z,53.00
2022-11-30T17:40:00.508Z,58.08
2022-11-30T17:42:29.914Z,54.55
2022-11-30T17:44:58.735Z,58.38
2022-11-30T17:47:26.383Z,53.00
2022-11-30T17:49:53.875Z,50.78
2022-11-30T17:52:21.352Z,55.33
2022-11-30T17:54:49.101Z,55.47
2022-11-30T17:59:44.284Z,100.40
2022-11-30T18:02:13.468Z,59.13
2022-11-30T18:04:40.985Z,59.97
2022-11-30T18:07:08.648Z,61.83
2022-11-30T18:09:40.964Z,115.80
2022-11-30T18:12:10.587Z,145.35
2022-11-30T18:14:38.170Z,138.27
2022-11-30T18:17:05.825Z,82.75
2022-11-30T18:19:34.788Z,160.95
2022-11-30T18:22:02.311Z,153.88
2022-11-30T18:24:29.885Z,145.23
2022-11-30T18:26:57.365Z,122.55
2022-11-30T18:29:25.613Z,149.18
2022-11-30T18:31:53.271Z,214.90
2022-11-30T18:34:20.915Z,177.82
2022-11-30T18:36:49.815Z,116.28
2022-11-30T18:39:17.279Z,106.90
2022-11-30T18:41:44.933Z,73.25
2022-11-30T18:44:12.613Z,102.30
2022-11-30T18:46:40.146Z,131.23
2022-11-30T18:49:07.796Z,154.30
2022-11-30T18:51:35.596Z,134.63
2022-11-30T18:54:06.679Z,177.68
2022-11-30T18:56:37.394Z,146.88
2022-11-30T18:59:06.886Z,153.77
2022-11-30T19:01:36.062Z,196.52
2022-11-30T19:04:06.542Z,325.45
2022-11-30T19:06:34.677Z,350.88
2022-11-30T19:09:05.483Z,309.95
2022-11-30T19:11:33.413Z,250.90
2022-11-30T19:14:01.700Z,150.40
2022-11-30T19:16:30.824Z,199.45
2022-11-30T19:19:01.295Z,163.40
2022-11-30T19:21:29.367Z,220.27
2022-11-30T19:26:27.915Z,224.75
2022-11-30T19:28:55.868Z,308.48
2022-11-30T19:31:25.055Z,323.20
2022-11-30T19:33:54.886Z,345.15
2022-11-30T19:36:24.830Z,223.07
2022-11-30T19:38:52.489Z,192.93
2022-11-30T19:41:21.344Z,134.88
2022-11-30T19:44:01.004Z,104.13
2022-11-30T19:46:29.051Z,83.50
2022-11-30T19:48:58.032Z,79.93
2022-11-30T19:51:25.584Z,76.38
2022-11-30T19:53:55.610Z,85.63
2022-11-30T19:56:24.067Z,120.38
2022-11-30T19:58:53.296Z,137.00
2022-11-30T20:01:23.712Z,139.73
2022-11-30T20:03:51.501Z,134.90
2022-11-30T20:06:19.329Z,126.35
2022-11-30T20:08:46.895Z,102.32
2022-11-30T20:11:16.299Z,113.43
2022-11-30T20:13:44.263Z,111.97
2022-11-30T20:16:14.852Z,125.57
2022-11-30T20:18:46.025Z,99.95
2022-11-30T20:21:15.605Z,113.65
2022-11-30T20:23:44.239Z,99.60
2022-11-30T20:26:17.487Z,104.85
2022-11-30T20:28:45.746Z,103.07
2022-11-30T20:31:16.320Z,114.63
2022-11-30T20:33:44.513Z,118.40
2022-11-30T20:36:14.057Z,108.47
2022-11-30T20:38:41.647Z,83.78
2022-11-30T20:41:12.029Z,85.20
2022-11-30T20:43:39.576Z,82.50
2022-11-30T20:46:15.468Z,78.25
2022-11-30T20:48:46.631Z,76.35
2022-11-30T20:51:32.431Z,84.60
2022-11-30T20:54:02.558Z,107.03
2022-11-30T20:56:30.059Z,109.20
2022-11-30T20:59:01.189Z,84.85
2022-11-30T21:01:30.166Z,97.05
2022-11-30T21:03:59.439Z,111.70
2022-11-30T21:06:27.067Z,114.97
2022-11-30T21:08:54.663Z,123.50
2022-11-30T21:11:23.192Z,121.07
2022-11-30T21:13:51.917Z,109.90
2022-11-30T21:16:27.363Z,89.15
2022-11-30T21:18:57.699Z,87.78
2022-11-30T21:21:28.074Z,94.80
2022-11-30T21:23:55.607Z,102.50
2022-11-30T21:26:24.542Z,103.70
2022-11-30T21:28:54.412Z,81.65
2022-11-30T21:31:22.405Z,93.18
2022-11-30T21:36:23.782Z,126.05
2022-11-30T21:38:58.160Z,126.43
2022-11-30T21:41:30.522Z,121.47
2022-11-30T21:43:58.012Z,133.23
2022-11-30T21:46:25.520Z,111.40
2022-11-30T21:48:53.550Z,125.90
